MSC Koroni — D5CD9 — position and weather

sailwx.info

Track history (hours):
 
Tides and Currents Weather Stations Pressure Air Temp Water Temp Dewpoint Dewpoint Depression Visibility Wind Speed Wind Dir Waves Ship Positions

MSC Koroni

Last reported at 2018-Jun-17 22:58 UTC. Time now 2018-Jun-18 00:23 UTC.
Position N 39°26' W 000°19'.

Length 257 m; draft 10.7 m.

Type: Ship (hazmat cat A). MMSI: 636015674.

Date/timePositionNaut miles runAvg speedWind from/ knotsBaromVisibWave heightAir tempDewpointWater temp
2018-Jun-17 22:58N 39°26' W 000°19'1 2.8
2018-Jun-17 22:30N 39°26' W 000°18'2 3.7
2018-Jun-17 22:01N 39°25' W 000°15'6414.0
2018-Jun-17 17:26N 39°47' E 001°03'716.1
2018-Jun-17 17:00N 39°51' E 001°10'26716.2
2018-Jun-17 00:34N 42°33' E 005°53'116.9
2018-Jun-17 00:30N 42°33' E 005°54'916.7
2018-Jun-16 23:59N 42°39' E 006°03'816.9
2018-Jun-16 23:30N 42°43' E 006°12'817.1
2018-Jun-16 23:00N 42°49' E 006°21'917.0
2018-Jun-16 22:30N 42°54' E 006°30'917.1
2018-Jun-16 21:59N 42°59' E 006°40'817.4
2018-Jun-16 21:30N 43°04' E 006°49'917.4
2018-Jun-16 21:00N 43°09' E 006°58'917.2
2018-Jun-16 20:30N 43°15' E 007°08'917.3
2018-Jun-16 20:00N 43°20' E 007°17'917.4
2018-Jun-16 19:30N 43°25' E 007°27'917.4
2018-Jun-16 19:00N 43°31' E 007°36'917.7
2018-Jun-16 18:30N 43°36' E 007°46'917.9
2018-Jun-16 18:00N 43°41' E 007°56'917.8
2018-Jun-16 17:29N 43°47' E 008°06'817.8
2018-Jun-16 17:00N 43°52' E 008°16'917.5
2018-Jun-16 16:30N 43°59' E 008°23'916.9
2018-Jun-16 16:00N 44°06' E 008°29'816.7
2018-Jun-16 15:30N 44°13' E 008°35'816.9
2018-Jun-16 15:00N 44°21' E 008°41'611.4
2018-Jun-16 14:30N 44°25' E 008°46'1 2.1
2018-Jun-16 14:01N 44°25' E 008°48'0 0.0
2018-Jun-16 13:31N 44°25' E 008°48'0 0.0
2018-Jun-16 13:01N 44°25' E 008°48'0 0.0
2018-Jun-16 12:30N 44°25' E 008°48'0 0.0
2018-Jun-16 11:57N 44°25' E 008°48'0 0.0
2018-Jun-16 11:30N 44°25' E 008°48'0 0.0
2018-Jun-16 11:00N 44°25' E 008°48'0 0.0
2018-Jun-16 10:30N 44°25' E 008°48'0 0.0
2018-Jun-16 10:01N 44°25' E 008°48'0 0.0
2018-Jun-16 09:31N 44°25' E 008°48'0 0.0
2018-Jun-16 09:01N 44°25' E 008°48'0 0.0
2018-Jun-16 08:31N 44°25' E 008°48'0 0.0
2018-Jun-16 08:01N 44°25' E 008°48'0 0.0
2018-Jun-16 07:30N 44°25' E 008°48'0 0.0
2018-Jun-16 07:00N 44°25' E 008°48'0 0.0
2018-Jun-16 06:31N 44°25' E 008°48'0 0.0
2018-Jun-16 06:01N 44°25' E 008°48'0 0.0
2018-Jun-16 05:30N 44°25' E 008°48'0 0.0
2018-Jun-16 05:00N 44°25' E 008°48'0 0.0
2018-Jun-16 04:27N 44°25' E 008°48'0 0.0
2018-Jun-16 03:57N 44°25' E 008°48'0 0.0
2018-Jun-16 03:27N 44°25' E 008°48'0 0.0
2018-Jun-16 03:00N 44°25' E 008°48'0 0.0
2018-Jun-16 02:30N 44°25' E 008°48'0 0.0
2018-Jun-16 02:00N 44°25' E 008°48'0 0.0
2018-Jun-16 01:30N 44°25' E 008°48'0 0.0
2018-Jun-16 01:00N 44°25' E 008°48'0 0.0
2018-Jun-16 00:28N 44°25' E 008°48'0 0.0
2018-Jun-15 23:58N 44°25' E 008°48'0 0.0
2018-Jun-15 23:25N 44°25' E 008°48'0 0.0
2018-Jun-15 22:58N 44°25' E 008°48'0 0.0
2018-Jun-15 22:28N 44°25' E 008°48'0 0.0
2018-Jun-15 21:58N 44°25' E 008°48'0 0.0
2018-Jun-15 21:28N 44°25' E 008°48'0 0.0
2018-Jun-15 20:58N 44°25' E 008°48'0 0.0
2018-Jun-15 20:25N 44°25' E 008°48'0 0.0
2018-Jun-15 19:58N 44°25' E 008°48'0 0.0
2018-Jun-15 19:28N 44°25' E 008°48'0 0.0
2018-Jun-15 18:58N 44°25' E 008°48'0 0.0
2018-Jun-15 18:28N 44°25' E 008°48'0 0.0
2018-Jun-15 17:58N 44°25' E 008°48'0 0.0
2018-Jun-15 17:28N 44°25' E 008°48'0 0.0
2018-Jun-15 16:59N 44°25' E 008°48'2 3.7
2018-Jun-15 16:31N 44°25' E 008°45'3 5.7
2018-Jun-15 16:00N 44°22' E 008°43'0 0.2
2018-Jun-15 15:30N 44°22' E 008°43'2 3.9
2018-Jun-15 15:00N 44°20' E 008°44'2 3.8
2018-Jun-15 14:30N 44°19' E 008°46'510.3
2018-Jun-15 14:00N 44°15' E 008°50'816.8
2018-Jun-15 13:30N 44°08' E 008°58'917.3
2018-Jun-15 13:00N 44°02' E 009°05'918.1
2018-Jun-15 12:30N 43°54' E 009°13'918.9
2018-Jun-15 12:00N 43°46' E 009°17'918.9
2018-Jun-15 11:30N 43°37' E 009°22'918.7
2018-Jun-15 11:00N 43°28' E 009°26'918.7
2018-Jun-15 10:30N 43°19' E 009°31'1019.0
2018-Jun-15 10:00N 43°10' E 009°36'1018.9
2018-Jun-15 09:28N 43°00' E 009°39'2518.6
2018-Jun-15 08:09N 42°37' E 009°47'3817.6
2018-Jun-15 05:59N 42°06' E 010°19'16218.5
2018-Jun-14 21:16N 40°24' E 013°05'16918.2
2018-Jun-14 11:59N 38°31' E 015°48'613.4
2018-Jun-14 11:31N 38°27' E 015°54'1 0.3
2018-Jun-14 07:43N 38°28' E 015°54'0 0.0
2018-Jun-14 00:40N 38°28' E 015°54'0 0.0
2018-Jun-13 16:34N 38°28' E 015°54'0 0.0
2018-Jun-13 13:34N 38°28' E 015°54'0 0.0
2018-Jun-13 13:16N 38°28' E 015°54'0 0.0
2018-Jun-13 11:22N 38°28' E 015°54'0 0.0
2018-Jun-13 10:16N 38°28' E 015°54'0 0.0
2018-Jun-13 09:52N 38°28' E 015°54'0 0.0
2018-Jun-13 09:28N 38°28' E 015°54'0 0.0
2018-Jun-12 23:07N 38°28' E 015°54'0 1.4
2018-Jun-12 22:59N 38°27' E 015°54'10 4.9
2018-Jun-12 21:03N 38°24' E 015°43'0 6.5
2018-Jun-12 20:59N 38°24' E 015°43'1 1.2
2018-Jun-12 20:30N 38°25' E 015°43'0 0.5
2018-Jun-12 19:54N 38°25' E 015°42'0 0.5
2018-Jun-12 19:23N 38°25' E 015°42'1 0.2
2018-Jun-12 13:17N 38°26' E 015°42'0 0.6
2018-Jun-12 13:00N 38°26' E 015°42'1 0.5
2018-Jun-12 11:52N 38°27' E 015°43'0 0.7
2018-Jun-12 11:29N 38°27' E 015°43'0 0.8
2018-Jun-12 10:57N 38°28' E 015°43'1 0.8
2018-Jun-12 10:17N 38°28' E 015°43'6 1.4
2018-Jun-12 06:16N 38°29' E 015°36'1 2.8
2018-Jun-12 06:00N 38°29' E 015°36'0 0.1
2018-Jun-12 05:30N 38°29' E 015°36'0 0.2
2018-Jun-12 05:00N 38°29' E 015°36'0 0.2
2018-Jun-12 04:30N 38°28' E 015°36'0 0.1
2018-Jun-12 03:59N 38°28' E 015°36'0 0.1
2018-Jun-12 03:30N 38°28' E 015°36'0 0.1
2018-Jun-12 02:59N 38°28' E 015°36'0 0.3
2018-Jun-12 02:30N 38°28' E 015°36'0 0.4
2018-Jun-12 01:59N 38°28' E 015°36'0 0.5
2018-Jun-12 01:27N 38°28' E 015°37'0 0.2
2018-Jun-12 00:37N 38°28' E 015°37'0 0.1
2018-Jun-12 00:22N 38°28' E 015°37'0 0.1
2018-Jun-11 23:21N 38°28' E 015°37'0 0.3
2018-Jun-11 22:56N 38°28' E 015°37'0 0.2
2018-Jun-11 22:26N 38°28' E 015°37'0 0.1
2018-Jun-11 21:57N 38°28' E 015°37'0 0.1
2018-Jun-11 21:30N 38°28' E 015°37'0 0.1
2018-Jun-11 21:00N 38°28' E 015°37'0 0.1
2018-Jun-11 20:30N 38°28' E 015°37'0 0.2
2018-Jun-11 18:37N 38°28' E 015°37'0 0.2
2018-Jun-11 18:30N 38°28' E 015°37'0 0.1
2018-Jun-11 17:53N 38°28' E 015°37'0 0.2
2018-Jun-11 17:19N 38°28' E 015°37'0 0.2
2018-Jun-11 17:00N 38°28' E 015°37'0 0.3
2018-Jun-11 16:05N 38°28' E 015°37'0 0.3
2018-Jun-11 15:58N 38°28' E 015°37'0 0.4
2018-Jun-11 15:25N 38°28' E 015°38'0 0.5
2018-Jun-11 14:55N 38°28' E 015°38'0 0.6
2018-Jun-11 14:28N 38°28' E 015°38'0 0.6
2018-Jun-11 14:00N 38°28' E 015°38'1 0.5
2018-Jun-11 12:45N 38°28' E 015°39'0 0.5
2018-Jun-11 12:28N 38°28' E 015°39'1 0.6
2018-Jun-11 10:45N 38°28' E 015°40'0 0.5
2018-Jun-11 10:30N 38°28' E 015°41'0 0.4
2018-Jun-11 10:00N 38°28' E 015°41'0 0.4
2018-Jun-11 09:30N 38°29' E 015°41'0 0.4
2018-Jun-11 09:00N 38°29' E 015°40'0 0.5
2018-Jun-11 08:30N 38°29' E 015°40'5 9.8
2018-Jun-11 08:00N 38°27' E 015°34'611.8
2018-Jun-11 07:29N 38°24' E 015°28'611.5
2018-Jun-11 07:00N 38°22' E 015°21'612.0
2018-Jun-11 06:30N 38°21' E 015°13'611.6
2018-Jun-11 06:00N 38°19' E 015°06'611.2
2018-Jun-11 05:30N 38°19' E 014°59'611.1
2018-Jun-11 05:00N 38°19' E 014°52'611.1
2018-Jun-11 04:30N 38°18' E 014°45'611.4
2018-Jun-11 03:59N 38°19' E 014°38'611.6
2018-Jun-11 03:30N 38°19' E 014°30'711.5
2018-Jun-11 02:53N 38°18' E 014°21'2111.4
2018-Jun-11 01:02N 38°19' E 013°54'011.3
2018-Jun-11 01:00N 38°19' E 013°54'611.1
2018-Jun-11 00:30N 38°18' E 013°47'511.0
2018-Jun-11 00:00N 38°19' E 013°40'511.0
2018-Jun-10 23:30N 38°19' E 013°33'611.2
2018-Jun-10 23:00N 38°19' E 013°26'611.4
2018-Jun-10 22:30N 38°19' E 013°19'611.3
2018-Jun-10 22:00N 38°18' E 013°11'611.0
2018-Jun-10 21:30N 38°18' E 013°04'510.7
2018-Jun-10 21:00N 38°18' E 012°57'510.8
2018-Jun-10 20:30N 38°18' E 012°51'510.7
2018-Jun-10 20:00N 38°18' E 012°44'510.7
2018-Jun-10 19:30N 38°18' E 012°37'32511.4
2018-Jun-09 15:04N 37°25' E 005°51'711.5
2018-Jun-09 14:30N 37°24' E 005°43'711.7
2018-Jun-09 13:52N 37°23' E 005°34'411.6
2018-Jun-09 13:29N 37°22' E 005°28'611.7
2018-Jun-09 13:00N 37°21' E 005°21'612.1
2018-Jun-09 12:30N 37°21' E 005°14'4912.3
2018-Jun-09 08:31N 37°12' E 004°13'012.1
2018-Jun-09 08:29N 37°12' E 004°13'712.1
2018-Jun-09 07:56N 37°11' E 004°05'612.1
2018-Jun-09 07:24N 37°10' E 003°57'4311.9
2018-Jun-09 03:45N 37°04' E 003°03'311.9
2018-Jun-09 03:30N 37°03' E 002°59'611.8
2018-Jun-09 03:00N 37°02' E 002°52'611.8
2018-Jun-09 02:30N 37°01' E 002°45'612.2
2018-Jun-09 02:00N 36°60' E 002°37'612.5
2018-Jun-09 01:30N 36°58' E 002°29'612.6
2018-Jun-09 01:00N 36°58' E 002°22'712.6
2018-Jun-09 00:29N 36°56' E 002°14'612.6
2018-Jun-08 23:59N 36°55' E 002°06'612.3
2018-Jun-08 23:30N 36°55' E 001°59'611.9
2018-Jun-08 23:00N 36°54' E 001°51'611.9
2018-Jun-08 22:30N 36°52' E 001°44'611.9
2018-Jun-08 22:00N 36°52' E 001°37'712.0
2018-Jun-08 21:24N 36°51' E 001°27'511.9
2018-Jun-08 21:00N 36°50' E 001°22'611.8
2018-Jun-08 20:29N 36°49' E 001°14'2511.7
2018-Jun-08 18:19N 36°45' E 000°43'411.7
2018-Jun-08 18:00N 36°44' E 000°38'611.7
2018-Jun-08 17:30N 36°43' E 000°31'611.6
2018-Jun-08 17:00N 36°42' E 000°24'4511.6
2018-Jun-08 13:05N 36°35' W 000°32'511.7
2018-Jun-08 12:40N 36°34' W 000°38'211.7
2018-Jun-08 12:30N 36°34' W 000°40'611.6
2018-Jun-08 11:59N 36°33' W 000°47'21419.0
2018-Jun-08 00:45N 36°02' W 005°10'521.1
2018-Jun-08 00:31N 36°01' W 005°16'1122.3
2018-Jun-08 00:00N 35°57' W 005°29'1121.0
2018-Jun-07 23:30N 35°55' W 005°42'  
Track history (hours):
 
Tides and Currents Weather Stations Pressure Air Temp Water Temp Dewpoint Dewpoint Depression Visibility Wind Speed Wind Dir Waves Ship Positions

MSC Koroni

Last reported at 2018-Jun-17 22:58 UTC. Time now 2018-Jun-18 00:23 UTC.
Position N 39°26' W 000°19'.

Length 257 m; draft 10.7 m.

Type: Ship (hazmat cat A). MMSI: 636015674.

Date/timePositionNaut miles runAvg speedWind from/ knotsBaromVisibWave heightAir tempDewpointWater temp
2018-Jun-17 22:58N 39°26' W 000°19'1 2.8
2018-Jun-17 22:30N 39°26' W 000°18'2 3.7
2018-Jun-17 22:01N 39°25' W 000°15'6414.0
2018-Jun-17 17:26N 39°47' E 001°03'716.1
2018-Jun-17 17:00N 39°51' E 001°10'26716.2
2018-Jun-17 00:34N 42°33' E 005°53'116.9
2018-Jun-17 00:30N 42°33' E 005°54'916.7
2018-Jun-16 23:59N 42°39' E 006°03'816.9
2018-Jun-16 23:30N 42°43' E 006°12'817.1
2018-Jun-16 23:00N 42°49' E 006°21'917.0
2018-Jun-16 22:30N 42°54' E 006°30'917.1
2018-Jun-16 21:59N 42°59' E 006°40'817.4
2018-Jun-16 21:30N 43°04' E 006°49'917.4
2018-Jun-16 21:00N 43°09' E 006°58'917.2
2018-Jun-16 20:30N 43°15' E 007°08'917.3
2018-Jun-16 20:00N 43°20' E 007°17'917.4
2018-Jun-16 19:30N 43°25' E 007°27'917.4
2018-Jun-16 19:00N 43°31' E 007°36'917.7
2018-Jun-16 18:30N 43°36' E 007°46'917.9
2018-Jun-16 18:00N 43°41' E 007°56'917.8
2018-Jun-16 17:29N 43°47' E 008°06'817.8
2018-Jun-16 17:00N 43°52' E 008°16'917.5
2018-Jun-16 16:30N 43°59' E 008°23'916.9
2018-Jun-16 16:00N 44°06' E 008°29'816.7
2018-Jun-16 15:30N 44°13' E 008°35'816.9
2018-Jun-16 15:00N 44°21' E 008°41'611.4
2018-Jun-16 14:30N 44°25' E 008°46'1 2.1
2018-Jun-16 14:01N 44°25' E 008°48'0 0.0
2018-Jun-16 13:31N 44°25' E 008°48'0 0.0
2018-Jun-16 13:01N 44°25' E 008°48'0 0.0
2018-Jun-16 12:30N 44°25' E 008°48'0 0.0
2018-Jun-16 11:57N 44°25' E 008°48'0 0.0
2018-Jun-16 11:30N 44°25' E 008°48'0 0.0
2018-Jun-16 11:00N 44°25' E 008°48'0 0.0
2018-Jun-16 10:30N 44°25' E 008°48'0 0.0
2018-Jun-16 10:01N 44°25' E 008°48'0 0.0
2018-Jun-16 09:31N 44°25' E 008°48'0 0.0
2018-Jun-16 09:01N 44°25' E 008°48'0 0.0
2018-Jun-16 08:31N 44°25' E 008°48'0 0.0
2018-Jun-16 08:01N 44°25' E 008°48'0 0.0
2018-Jun-16 07:30N 44°25' E 008°48'0 0.0
2018-Jun-16 07:00N 44°25' E 008°48'0 0.0
2018-Jun-16 06:31N 44°25' E 008°48'0 0.0
2018-Jun-16 06:01N 44°25' E 008°48'0 0.0
2018-Jun-16 05:30N 44°25' E 008°48'0 0.0
2018-Jun-16 05:00N 44°25' E 008°48'0 0.0
2018-Jun-16 04:27N 44°25' E 008°48'0 0.0
2018-Jun-16 03:57N 44°25' E 008°48'0 0.0
2018-Jun-16 03:27N 44°25' E 008°48'0 0.0
2018-Jun-16 03:00N 44°25' E 008°48'0 0.0
2018-Jun-16 02:30N 44°25' E 008°48'0 0.0
2018-Jun-16 02:00N 44°25' E 008°48'0 0.0
2018-Jun-16 01:30N 44°25' E 008°48'0 0.0
2018-Jun-16 01:00N 44°25' E 008°48'0 0.0
2018-Jun-16 00:28N 44°25' E 008°48'0 0.0
2018-Jun-15 23:58N 44°25' E 008°48'0 0.0
2018-Jun-15 23:25N 44°25' E 008°48'0 0.0
2018-Jun-15 22:58N 44°25' E 008°48'0 0.0
2018-Jun-15 22:28N 44°25' E 008°48'0 0.0
2018-Jun-15 21:58N 44°25' E 008°48'0 0.0
2018-Jun-15 21:28N 44°25' E 008°48'0 0.0
2018-Jun-15 20:58N 44°25' E 008°48'0 0.0
2018-Jun-15 20:25N 44°25' E 008°48'0 0.0
2018-Jun-15 19:58N 44°25' E 008°48'0 0.0
2018-Jun-15 19:28N 44°25' E 008°48'0 0.0
2018-Jun-15 18:58N 44°25' E 008°48'0 0.0
2018-Jun-15 18:28N 44°25' E 008°48'0 0.0
2018-Jun-15 17:58N 44°25' E 008°48'0 0.0
2018-Jun-15 17:28N 44°25' E 008°48'0 0.0
2018-Jun-15 16:59N 44°25' E 008°48'2 3.7
2018-Jun-15 16:31N 44°25' E 008°45'3 5.7
2018-Jun-15 16:00N 44°22' E 008°43'0 0.2
2018-Jun-15 15:30N 44°22' E 008°43'2 3.9
2018-Jun-15 15:00N 44°20' E 008°44'2 3.8
2018-Jun-15 14:30N 44°19' E 008°46'510.3
2018-Jun-15 14:00N 44°15' E 008°50'816.8
2018-Jun-15 13:30N 44°08' E 008°58'917.3
2018-Jun-15 13:00N 44°02' E 009°05'918.1
2018-Jun-15 12:30N 43°54' E 009°13'918.9
2018-Jun-15 12:00N 43°46' E 009°17'918.9
2018-Jun-15 11:30N 43°37' E 009°22'918.7
2018-Jun-15 11:00N 43°28' E 009°26'918.7
2018-Jun-15 10:30N 43°19' E 009°31'1019.0
2018-Jun-15 10:00N 43°10' E 009°36'1018.9
2018-Jun-15 09:28N 43°00' E 009°39'2518.6
2018-Jun-15 08:09N 42°37' E 009°47'3817.6
2018-Jun-15 05:59N 42°06' E 010°19'16218.5
2018-Jun-14 21:16N 40°24' E 013°05'16918.2
2018-Jun-14 11:59N 38°31' E 015°48'613.4
2018-Jun-14 11:31N 38°27' E 015°54'1 0.3
2018-Jun-14 07:43N 38°28' E 015°54'0 0.0
2018-Jun-14 00:40N 38°28' E 015°54'0 0.0
2018-Jun-13 16:34N 38°28' E 015°54'0 0.0
2018-Jun-13 13:34N 38°28' E 015°54'0 0.0
2018-Jun-13 13:16N 38°28' E 015°54'0 0.0
2018-Jun-13 11:22N 38°28' E 015°54'0 0.0
2018-Jun-13 10:16N 38°28' E 015°54'0 0.0
2018-Jun-13 09:52N 38°28' E 015°54'0 0.0
2018-Jun-13 09:28N 38°28' E 015°54'0 0.0
2018-Jun-12 23:07N 38°28' E 015°54'0 1.4
2018-Jun-12 22:59N 38°27' E 015°54'10 4.9
2018-Jun-12 21:03N 38°24' E 015°43'0 6.5
2018-Jun-12 20:59N 38°24' E 015°43'1 1.2
2018-Jun-12 20:30N 38°25' E 015°43'0 0.5
2018-Jun-12 19:54N 38°25' E 015°42'0 0.5
2018-Jun-12 19:23N 38°25' E 015°42'1 0.2
2018-Jun-12 13:17N 38°26' E 015°42'0 0.6
2018-Jun-12 13:00N 38°26' E 015°42'1 0.5
2018-Jun-12 11:52N 38°27' E 015°43'0 0.7
2018-Jun-12 11:29N 38°27' E 015°43'0 0.8
2018-Jun-12 10:57N 38°28' E 015°43'1 0.8
2018-Jun-12 10:17N 38°28' E 015°43'6 1.4
2018-Jun-12 06:16N 38°29' E 015°36'1 2.8
2018-Jun-12 06:00N 38°29' E 015°36'0 0.1
2018-Jun-12 05:30N 38°29' E 015°36'0 0.2
2018-Jun-12 05:00N 38°29' E 015°36'0 0.2
2018-Jun-12 04:30N 38°28' E 015°36'0 0.1
2018-Jun-12 03:59N 38°28' E 015°36'0 0.1
2018-Jun-12 03:30N 38°28' E 015°36'0 0.1
2018-Jun-12 02:59N 38°28' E 015°36'0 0.3
2018-Jun-12 02:30N 38°28' E 015°36'0 0.4
2018-Jun-12 01:59N 38°28' E 015°36'0 0.5
2018-Jun-12 01:27N 38°28' E 015°37'0 0.2
2018-Jun-12 00:37N 38°28' E 015°37'0 0.1
2018-Jun-12 00:22N 38°28' E 015°37'0 0.1
2018-Jun-11 23:21N 38°28' E 015°37'0 0.3
2018-Jun-11 22:56N 38°28' E 015°37'0 0.2
2018-Jun-11 22:26N 38°28' E 015°37'0 0.1
2018-Jun-11 21:57N 38°28' E 015°37'0 0.1
2018-Jun-11 21:30N 38°28' E 015°37'0 0.1
2018-Jun-11 21:00N 38°28' E 015°37'0 0.1
2018-Jun-11 20:30N 38°28' E 015°37'0 0.2
2018-Jun-11 18:37N 38°28' E 015°37'0 0.2
2018-Jun-11 18:30N 38°28' E 015°37'0 0.1
2018-Jun-11 17:53N 38°28' E 015°37'0 0.2
2018-Jun-11 17:19N 38°28' E 015°37'0 0.2
2018-Jun-11 17:00N 38°28' E 015°37'0 0.3
2018-Jun-11 16:05N 38°28' E 015°37'0 0.3
2018-Jun-11 15:58N 38°28' E 015°37'0 0.4
2018-Jun-11 15:25N 38°28' E 015°38'0 0.5
2018-Jun-11 14:55N 38°28' E 015°38'0 0.6
2018-Jun-11 14:28N 38°28' E 015°38'0 0.6
2018-Jun-11 14:00N 38°28' E 015°38'1 0.5
2018-Jun-11 12:45N 38°28' E 015°39'0 0.5
2018-Jun-11 12:28N 38°28' E 015°39'1 0.6
2018-Jun-11 10:45N 38°28' E 015°40'0 0.5
2018-Jun-11 10:30N 38°28' E 015°41'0 0.4
2018-Jun-11 10:00N 38°28' E 015°41'0 0.4
2018-Jun-11 09:30N 38°29' E 015°41'0 0.4
2018-Jun-11 09:00N 38°29' E 015°40'0 0.5
2018-Jun-11 08:30N 38°29' E 015°40'5 9.8
2018-Jun-11 08:00N 38°27' E 015°34'611.8
2018-Jun-11 07:29N 38°24' E 015°28'611.5
2018-Jun-11 07:00N 38°22' E 015°21'612.0
2018-Jun-11 06:30N 38°21' E 015°13'611.6
2018-Jun-11 06:00N 38°19' E 015°06'611.2
2018-Jun-11 05:30N 38°19' E 014°59'611.1
2018-Jun-11 05:00N 38°19' E 014°52'611.1
2018-Jun-11 04:30N 38°18' E 014°45'611.4
2018-Jun-11 03:59N 38°19' E 014°38'611.6
2018-Jun-11 03:30N 38°19' E 014°30'711.5
2018-Jun-11 02:53N 38°18' E 014°21'2111.4
2018-Jun-11 01:02N 38°19' E 013°54'011.3
2018-Jun-11 01:00N 38°19' E 013°54'611.1
2018-Jun-11 00:30N 38°18' E 013°47'511.0
2018-Jun-11 00:00N 38°19' E 013°40'511.0
2018-Jun-10 23:30N 38°19' E 013°33'611.2
2018-Jun-10 23:00N 38°19' E 013°26'611.4
2018-Jun-10 22:30N 38°19' E 013°19'611.3
2018-Jun-10 22:00N 38°18' E 013°11'611.0
2018-Jun-10 21:30N 38°18' E 013°04'510.7
2018-Jun-10 21:00N 38°18' E 012°57'510.8
2018-Jun-10 20:30N 38°18' E 012°51'510.7
2018-Jun-10 20:00N 38°18' E 012°44'510.7
2018-Jun-10 19:30N 38°18' E 012°37'32511.4
2018-Jun-09 15:04N 37°25' E 005°51'711.5
2018-Jun-09 14:30N 37°24' E 005°43'711.7
2018-Jun-09 13:52N 37°23' E 005°34'411.6
2018-Jun-09 13:29N 37°22' E 005°28'611.7
2018-Jun-09 13:00N 37°21' E 005°21'612.1
2018-Jun-09 12:30N 37°21' E 005°14'4912.3
2018-Jun-09 08:31N 37°12' E 004°13'012.1
2018-Jun-09 08:29N 37°12' E 004°13'712.1
2018-Jun-09 07:56N 37°11' E 004°05'612.1
2018-Jun-09 07:24N 37°10' E 003°57'4311.9
2018-Jun-09 03:45N 37°04' E 003°03'311.9
2018-Jun-09 03:30N 37°03' E 002°59'611.8
2018-Jun-09 03:00N 37°02' E 002°52'611.8
2018-Jun-09 02:30N 37°01' E 002°45'612.2
2018-Jun-09 02:00N 36°60' E 002°37'612.5
2018-Jun-09 01:30N 36°58' E 002°29'612.6
2018-Jun-09 01:00N 36°58' E 002°22'712.6
2018-Jun-09 00:29N 36°56' E 002°14'612.6
2018-Jun-08 23:59N 36°55' E 002°06'612.3
2018-Jun-08 23:30N 36°55' E 001°59'611.9
2018-Jun-08 23:00N 36°54' E 001°51'611.9
2018-Jun-08 22:30N 36°52' E 001°44'611.9
2018-Jun-08 22:00N 36°52' E 001°37'712.0
2018-Jun-08 21:24N 36°51' E 001°27'511.9
2018-Jun-08 21:00N 36°50' E 001°22'611.8
2018-Jun-08 20:29N 36°49' E 001°14'2511.7
2018-Jun-08 18:19N 36°45' E 000°43'411.7
2018-Jun-08 18:00N 36°44' E 000°38'611.7
2018-Jun-08 17:30N 36°43' E 000°31'611.6
2018-Jun-08 17:00N 36°42' E 000°24'4511.6
2018-Jun-08 13:05N 36°35' W 000°32'511.7
2018-Jun-08 12:40N 36°34' W 000°38'211.7
2018-Jun-08 12:30N 36°34' W 000°40'611.6
2018-Jun-08 11:59N 36°33' W 000°47'21419.0
2018-Jun-08 00:45N 36°02' W 005°10'521.1
2018-Jun-08 00:31N 36°01' W 005°16'1122.3
2018-Jun-08 00:00N 35°57' W 005°29'1121.0
2018-Jun-07 23:30N 35°55' W 005°42'  

Dump ship's entire track history